Terminal Aerodrome Forecast
Issued by NWS

Home | Current Version | Previous Version | Text Only | Print | Product List | Glossary On
Versions: 1 2 3 4 5 6 7 8 9 10 11 12 13 14
000
FTUS46 KPDT 301700
TAFBDN
TAF
KBDN 301720Z 3018/0118 32012G20KT P6SM SCT040
     FM010400 30010KT P6SM BKN040
     FM010900 VRB05KT P6SM BKN045
     FM011200 22005KT P6SM SCT250=

USA.gov is the U.S. government's official web portal to all federal, state and local government web resources and services.